Gdov, Russia
Current Conditions -  °F | °C
As of 2:50 AM on Sunday 26 Oct 2014 (Local Time) from EETU Reporting Station
Few Clouds Few Clouds  
Wind Chill: 24°   Ceiling: Unl
Heat Index: 32°   Visibility: 6mi
Dew Point: 14°   Wind: 10mph
Humidity: 47%   Direction: 190°S
Pressure: 30.27"   Gusts: NA
Location:  58.74°N, 27.81°E
Report Text: EETU 252350Z AUTO 19009KT 9999 FEW180/// M00/M10 Q1025
Loading
Personal Weather Stations






























Interactive Weather Map
Tropical Storm Tracking
New forecast layout! Learn more

10-Day Weather Forecast

Advertisements
Track Severe Weather on mobile